sensor_id;sensor_type;location;lat;lon;timestamp;pressure;altitude;pressure_sealevel;temperature;humidity
18504;BME280;9381;54.244;10.074;2023-03-20T00:01:02;101099.69;;;9.42;100.00
18504;BME280;9381;54.244;10.074;2023-03-20T00:06:02;101110.63;;;9.27;100.00
18504;BME280;9381;54.244;10.074;2023-03-20T00:11:03;101104.00;;;9.30;100.00
18504;BME280;9381;54.244;10.074;2023-03-20T00:16:04;101107.88;;;9.55;100.00
18504;BME280;9381;54.244;10.074;2023-03-20T00:21:05;101110.03;;;9.32;100.00
18504;BME280;9381;54.244;10.074;2023-03-20T00:26:07;101105.09;;;9.08;100.00
18504;BME280;9381;54.244;10.074;2023-03-20T00:31:23;101104.66;;;8.77;100.00
18504;BME280;9381;54.244;10.074;2023-03-20T00:36:24;101099.03;;;8.99;100.00
18504;BME280;9381;54.244;10.074;2023-03-20T00:41:30;101100.78;;;9.13;100.00
18504;BME280;9381;54.244;10.074;2023-03-20T00:46:36;101106.25;;;8.65;100.00
18504;BME280;9381;54.244;10.074;2023-03-20T00:51:37;101096.88;;;8.88;100.00
18504;BME280;9381;54.244;10.074;2023-03-20T00:56:44;101100.56;;;8.81;100.00
18504;BME280;9381;54.244;10.074;2023-03-20T01:01:45;101105.63;;;8.97;100.00
18504;BME280;9381;54.244;10.074;2023-03-20T01:06:45;101101.44;;;8.88;100.00
18504;BME280;9381;54.244;10.074;2023-03-20T01:11:46;101103.94;;;8.89;100.00
18504;BME280;9381;54.244;10.074;2023-03-20T01:16:46;101119.91;;;8.63;100.00
18504;BME280;9381;54.244;10.074;2023-03-20T01:21:46;101109.28;;;8.35;100.00
18504;BME280;9381;54.244;10.074;2023-03-20T01:26:47;101117.53;;;8.33;100.00
18504;BME280;9381;54.244;10.074;2023-03-20T01:31:49;101111.91;;;8.28;100.00
18504;BME280;9381;54.244;10.074;2023-03-20T01:36:54;101120.22;;;7.77;100.00
18504;BME280;9381;54.244;10.074;2023-03-20T01:41:56;101123.09;;;8.11;100.00
18504;BME280;9381;54.244;10.074;2023-03-20T01:46:57;101126.84;;;7.95;100.00
18504;BME280;9381;54.244;10.074;2023-03-20T01:51:57;101114.25;;;7.96;100.00
18504;BME280;9381;54.244;10.074;2023-03-20T01:57:14;101111.66;;;8.23;100.00
18504;BME280;9381;54.244;10.074;2023-03-20T02:02:18;101104.06;;;8.33;100.00
18504;BME280;9381;54.244;10.074;2023-03-20T02:07:22;101107.31;;;8.08;100.00
18504;BME280;9381;54.244;10.074;2023-03-20T02:12:23;101106.34;;;8.15;100.00
18504;BME280;9381;54.244;10.074;2023-03-20T02:17:23;101091.91;;;8.02;100.00
18504;BME280;9381;54.244;10.074;2023-03-20T02:27:53;101082.03;;;8.09;100.00
18504;BME280;9381;54.244;10.074;2023-03-20T02:43:54;101081.81;;;7.89;100.00
18504;BME280;9381;54.244;10.074;2023-03-20T02:49:21;101091.44;;;7.98;100.00
18504;BME280;9381;54.244;10.074;2023-03-20T03:04:59;101077.66;;;8.22;100.00
18504;BME280;9381;54.244;10.074;2023-03-20T03:10:26;101059.34;;;8.18;100.00
18504;BME280;9381;54.244;10.074;2023-03-20T03:15:34;101061.34;;;8.09;100.00
18504;BME280;9381;54.244;10.074;2023-03-20T03:20:38;101049.97;;;7.93;100.00
18504;BME280;9381;54.244;10.074;2023-03-20T03:25:40;101045.66;;;7.77;100.00
18504;BME280;9381;54.244;10.074;2023-03-20T03:30:41;101046.22;;;7.94;100.00
18504;BME280;9381;54.244;10.074;2023-03-20T03:35:42;101040.28;;;7.98;100.00
18504;BME280;9381;54.244;10.074;2023-03-20T03:40:48;101043.03;;;7.84;100.00
18504;BME280;9381;54.244;10.074;2023-03-20T03:46:13;101049.38;;;7.97;100.00
18504;BME280;9381;54.244;10.074;2023-03-20T03:51:20;101031.91;;;7.87;100.00
18504;BME280;9381;54.244;10.074;2023-03-20T03:56:25;101031.19;;;7.99;100.00
18504;BME280;9381;54.244;10.074;2023-03-20T04:01:27;101039.28;;;7.99;100.00
18504;BME280;9381;54.244;10.074;2023-03-20T04:06:28;101034.84;;;8.13;100.00
18504;BME280;9381;54.244;10.074;2023-03-20T04:11:28;101030.16;;;8.00;100.00
18504;BME280;9381;54.244;10.074;2023-03-20T04:16:29;101028.34;;;8.07;100.00
18504;BME280;9381;54.244;10.074;2023-03-20T04:21:29;101021.28;;;8.06;100.00
18504;BME280;9381;54.244;10.074;2023-03-20T04:26:30;101023.03;;;7.93;100.00
18504;BME280;9381;54.244;10.074;2023-03-20T04:31:31;101020.53;;;7.91;100.00
18504;BME280;9381;54.244;10.074;2023-03-20T04:36:31;101015.91;;;7.85;100.00
18504;BME280;9381;54.244;10.074;2023-03-20T04:41:32;101028.50;;;7.99;100.00
18504;BME280;9381;54.244;10.074;2023-03-20T04:46:32;101020.53;;;7.91;100.00
18504;BME280;9381;54.244;10.074;2023-03-20T04:51:32;101023.75;;;8.01;100.00
18504;BME280;9381;54.244;10.074;2023-03-20T04:56:33;101023.72;;;7.80;100.00
18504;BME280;9381;54.244;10.074;2023-03-20T05:01:33;101018.16;;;8.03;100.00
18504;BME280;9381;54.244;10.074;2023-03-20T05:06:34;101014.38;;;8.18;100.00
18504;BME280;9381;54.244;10.074;2023-03-20T05:11:35;101015.13;;;8.12;100.00
18504;BME280;9381;54.244;10.074;2023-03-20T05:16:35;101027.09;;;8.24;100.00
18504;BME280;9381;54.244;10.074;2023-03-20T05:21:35;101028.22;;;8.15;100.00
18504;BME280;9381;54.244;10.074;2023-03-20T05:26:36;101033.88;;;7.99;100.00
18504;BME280;9381;54.244;10.074;2023-03-20T05:31:36;101033.72;;;8.22;100.00
18504;BME280;9381;54.244;10.074;2023-03-20T05:36:37;101031.56;;;8.17;100.00
18504;BME280;9381;54.244;10.074;2023-03-20T05:41:37;101035.03;;;8.11;100.00
18504;BME280;9381;54.244;10.074;2023-03-20T05:46:38;101037.31;;;8.14;100.00
18504;BME280;9381;54.244;10.074;2023-03-20T05:51:38;101048.09;;;8.35;100.00
18504;BME280;9381;54.244;10.074;2023-03-20T05:56:39;101050.38;;;8.32;100.00
18504;BME280;9381;54.244;10.074;2023-03-20T06:01:39;101046.22;;;8.29;100.00
18504;BME280;9381;54.244;10.074;2023-03-20T06:06:39;101043.81;;;8.41;100.00
18504;BME280;9381;54.244;10.074;2023-03-20T06:11:40;101060.06;;;8.47;100.00
18504;BME280;9381;54.244;10.074;2023-03-20T06:16:41;101051.19;;;8.32;100.00
18504;BME280;9381;54.244;10.074;2023-03-20T06:21:41;101056.41;;;8.61;100.00
18504;BME280;9381;54.244;10.074;2023-03-20T06:26:41;101059.91;;;8.34;100.00
18504;BME280;9381;54.244;10.074;2023-03-20T06:31:42;101080.31;;;8.43;100.00
18504;BME280;9381;54.244;10.074;2023-03-20T06:36:43;101070.38;;;8.44;100.00
18504;BME280;9381;54.244;10.074;2023-03-20T06:41:43;101080.44;;;8.56;100.00
18504;BME280;9381;54.244;10.074;2023-03-20T06:46:43;101069.16;;;8.46;100.00
18504;BME280;9381;54.244;10.074;2023-03-20T06:51:46;101073.41;;;8.34;100.00
18504;BME280;9381;54.244;10.074;2023-03-20T06:56:47;101075.78;;;8.44;100.00
18504;BME280;9381;54.244;10.074;2023-03-20T07:01:47;101072.44;;;8.42;100.00
18504;BME280;9381;54.244;10.074;2023-03-20T07:06:48;101072.22;;;8.64;100.00
18504;BME280;9381;54.244;10.074;2023-03-20T07:11:48;101068.84;;;8.62;100.00
18504;BME280;9381;54.244;10.074;2023-03-20T07:16:48;101080.03;;;8.59;100.00
18504;BME280;9381;54.244;10.074;2023-03-20T07:21:51;101075.81;;;8.50;100.00
18504;BME280;9381;54.244;10.074;2023-03-20T07:26:54;101082.59;;;8.67;100.00
18504;BME280;9381;54.244;10.074;2023-03-20T07:31:55;101094.41;;;8.66;100.00
18504;BME280;9381;54.244;10.074;2023-03-20T07:36:56;101094.69;;;9.05;100.00
18504;BME280;9381;54.244;10.074;2023-03-20T07:41:56;101106.34;;;8.78;100.00
18504;BME280;9381;54.244;10.074;2023-03-20T07:46:57;101105.19;;;8.93;100.00
18504;BME280;9381;54.244;10.074;2023-03-20T07:51:57;101099.47;;;9.03;100.00
18504;BME280;9381;54.244;10.074;2023-03-20T07:56:57;101099.50;;;9.09;100.00
18504;BME280;9381;54.244;10.074;2023-03-20T08:01:58;101087.78;;;8.96;100.00
18504;BME280;9381;54.244;10.074;2023-03-20T08:06:58;101100.38;;;9.16;100.00
18504;BME280;9381;54.244;10.074;2023-03-20T08:11:58;101094.06;;;9.03;100.00
18504;BME280;9381;54.244;10.074;2023-03-20T08:16:58;101096.63;;;9.11;100.00
18504;BME280;9381;54.244;10.074;2023-03-20T08:21:59;101104.09;;;9.09;100.00
18504;BME280;9381;54.244;10.074;2023-03-20T08:27:00;101098.59;;;8.96;100.00
18504;BME280;9381;54.244;10.074;2023-03-20T08:32:00;101096.47;;;9.19;100.00
18504;BME280;9381;54.244;10.074;2023-03-20T08:37:04;101091.69;;;9.21;100.00
18504;BME280;9381;54.244;10.074;2023-03-20T08:42:05;101095.91;;;9.02;100.00
18504;BME280;9381;54.244;10.074;2023-03-20T08:47:06;101102.91;;;9.18;100.00
18504;BME280;9381;54.244;10.074;2023-03-20T08:52:07;101098.88;;;8.80;100.00
18504;BME280;9381;54.244;10.074;2023-03-20T08:57:07;101097.41;;;9.05;100.00
18504;BME280;9381;54.244;10.074;2023-03-20T09:02:09;101110.25;;;9.03;100.00
18504;BME280;9381;54.244;10.074;2023-03-20T09:07:10;101095.81;;;9.17;100.00
18504;BME280;9381;54.244;10.074;2023-03-20T09:12:11;101100.88;;;8.99;100.00
18504;BME280;9381;54.244;10.074;2023-03-20T09:17:11;101102.00;;;9.11;100.00
18504;BME280;9381;54.244;10.074;2023-03-20T09:22:12;101109.50;;;9.49;100.00
18504;BME280;9381;54.244;10.074;2023-03-20T09:27:13;101104.16;;;9.22;100.00
18504;BME280;9381;54.244;10.074;2023-03-20T09:32:14;101103.66;;;9.46;100.00
18504;BME280;9381;54.244;10.074;2023-03-20T09:37:14;101116.28;;;9.39;100.00
18504;BME280;9381;54.244;10.074;2023-03-20T09:42:22;101115.50;;;9.45;100.00
18504;BME280;9381;54.244;10.074;2023-03-20T09:53:08;101119.47;;;9.55;100.00
18504;BME280;9381;54.244;10.074;2023-03-20T09:58:29;101117.16;;;9.46;100.00
18504;BME280;9381;54.244;10.074;2023-03-20T10:03:55;101112.28;;;9.69;100.00
18504;BME280;9381;54.244;10.074;2023-03-20T10:08:56;101118.09;;;9.66;100.00
18504;BME280;9381;54.244;10.074;2023-03-20T10:14:09;101100.25;;;9.78;100.00
18504;BME280;9381;54.244;10.074;2023-03-20T10:19:30;101095.19;;;9.62;100.00
18504;BME280;9381;54.244;10.074;2023-03-20T10:30:26;101101.78;;;9.46;100.00
18504;BME280;9381;54.244;10.074;2023-03-20T10:35:39;101097.09;;;9.61;100.00
18504;BME280;9381;54.244;10.074;2023-03-20T10:40:41;101104.59;;;9.66;100.00
18504;BME280;9381;54.244;10.074;2023-03-20T10:51:16;101085.34;;;9.82;100.00
18504;BME280;9381;54.244;10.074;2023-03-20T10:56:41;101091.22;;;10.05;100.00
18504;BME280;9381;54.244;10.074;2023-03-20T11:01:43;101091.56;;;9.89;100.00
18504;BME280;9381;54.244;10.074;2023-03-20T11:07:12;101088.22;;;9.74;100.00
18504;BME280;9381;54.244;10.074;2023-03-20T11:12:16;101087.06;;;10.02;100.00
18504;BME280;9381;54.244;10.074;2023-03-20T11:17:18;101085.03;;;10.24;100.00
18504;BME280;9381;54.244;10.074;2023-03-20T11:22:24;101091.25;;;10.11;100.00
18504;BME280;9381;54.244;10.074;2023-03-20T11:27:27;101081.28;;;10.05;100.00
18504;BME280;9381;54.244;10.074;2023-03-20T11:32:34;101086.69;;;10.12;100.00
18504;BME280;9381;54.244;10.074;2023-03-20T11:37:35;101081.69;;;10.15;100.00
18504;BME280;9381;54.244;10.074;2023-03-20T11:42:35;101078.16;;;10.15;100.00
18504;BME280;9381;54.244;10.074;2023-03-20T11:47:36;101078.50;;;9.92;100.00
18504;BME280;9381;54.244;10.074;2023-03-20T11:52:38;101071.22;;;9.93;100.00
18504;BME280;9381;54.244;10.074;2023-03-20T11:57:40;101064.44;;;10.10;100.00
18504;BME280;9381;54.244;10.074;2023-03-20T12:02:42;101070.00;;;10.02;100.00
18504;BME280;9381;54.244;10.074;2023-03-20T12:07:43;101067.56;;;10.13;100.00
18504;BME280;9381;54.244;10.074;2023-03-20T12:12:55;101067.16;;;10.16;100.00
18504;BME280;9381;54.244;10.074;2023-03-20T12:18:02;101055.91;;;10.26;100.00
18504;BME280;9381;54.244;10.074;2023-03-20T12:28:35;101047.22;;;10.37;100.00
18504;BME280;9381;54.244;10.074;2023-03-20T12:39:15;101056.28;;;10.03;100.00
18504;BME280;9381;54.244;10.074;2023-03-20T12:44:20;101057.56;;;10.14;100.00
18504;BME280;9381;54.244;10.074;2023-03-20T12:55:15;101042.63;;;10.37;100.00
18504;BME280;9381;54.244;10.074;2023-03-20T13:00:25;101048.03;;;10.31;100.00
18504;BME280;9381;54.244;10.074;2023-03-20T13:21:46;101038.47;;;10.74;100.00
18504;BME280;9381;54.244;10.074;2023-03-20T13:26:58;101033.03;;;10.61;98.25
18504;BME280;9381;54.244;10.074;2023-03-20T13:32:05;101028.06;;;10.64;97.37
18504;BME280;9381;54.244;10.074;2023-03-20T13:37:17;101036.81;;;10.47;98.23
18504;BME280;9381;54.244;10.074;2023-03-20T13:42:21;101055.50;;;10.16;100.00
18504;BME280;9381;54.244;10.074;2023-03-20T13:47:26;101059.25;;;10.54;100.00
18504;BME280;9381;54.244;10.074;2023-03-20T13:52:30;101046.34;;;10.04;100.00
18504;BME280;9381;54.244;10.074;2023-03-20T14:03:04;101038.06;;;10.38;100.00
18504;BME280;9381;54.244;10.074;2023-03-20T14:13:37;101038.03;;;10.25;99.06
18504;BME280;9381;54.244;10.074;2023-03-20T14:18:39;101041.34;;;10.20;100.00
18504;BME280;9381;54.244;10.074;2023-03-20T14:23:43;101048.78;;;9.99;100.00
18504;BME280;9381;54.244;10.074;2023-03-20T14:33:58;101051.88;;;9.83;100.00
18504;BME280;9381;54.244;10.074;2023-03-20T14:45:12;101054.53;;;9.70;100.00
18504;BME280;9381;54.244;10.074;2023-03-20T15:00:33;101042.50;;;9.85;100.00
18504;BME280;9381;54.244;10.074;2023-03-20T15:05:36;101035.00;;;9.68;100.00
18504;BME280;9381;54.244;10.074;2023-03-20T15:10:51;101034.75;;;9.56;100.00
18504;BME280;9381;54.244;10.074;2023-03-20T15:16:02;101028.72;;;9.54;100.00
18504;BME280;9381;54.244;10.074;2023-03-20T15:21:10;101001.34;;;9.64;100.00
18504;BME280;9381;54.244;10.074;2023-03-20T15:26:17;101000.84;;;9.41;100.00
18504;BME280;9381;54.244;10.074;2023-03-20T15:31:23;100995.25;;;9.49;100.00
18504;BME280;9381;54.244;10.074;2023-03-20T15:36:27;101009.38;;;9.51;100.00
18504;BME280;9381;54.244;10.074;2023-03-20T15:41:32;101010.50;;;9.76;100.00
18504;BME280;9381;54.244;10.074;2023-03-20T15:46:37;101003.63;;;9.67;100.00
18504;BME280;9381;54.244;10.074;2023-03-20T15:51:37;101006.09;;;9.62;100.00
18504;BME280;9381;54.244;10.074;2023-03-20T15:56:38;101006.50;;;9.59;100.00
18504;BME280;9381;54.244;10.074;2023-03-20T16:01:43;101016.94;;;9.75;100.00
18504;BME280;9381;54.244;10.074;2023-03-20T16:06:55;101023.78;;;9.71;100.00
18504;BME280;9381;54.244;10.074;2023-03-20T16:11:58;101011.03;;;9.52;100.00
18504;BME280;9381;54.244;10.074;2023-03-20T16:17:00;101014.25;;;9.75;100.00
18504;BME280;9381;54.244;10.074;2023-03-20T16:22:12;101022.09;;;9.63;100.00
18504;BME280;9381;54.244;10.074;2023-03-20T16:27:35;101025.00;;;9.62;100.00
18504;BME280;9381;54.244;10.074;2023-03-20T16:32:44;101021.06;;;9.71;100.00
18504;BME280;9381;54.244;10.074;2023-03-20T16:37:54;101019.22;;;9.71;100.00
18504;BME280;9381;54.244;10.074;2023-03-20T16:42:55;101028.34;;;9.64;100.00
18504;BME280;9381;54.244;10.074;2023-03-20T16:48:27;101036.28;;;9.78;100.00
18504;BME280;9381;54.244;10.074;2023-03-20T16:53:35;101037.94;;;9.92;100.00
18504;BME280;9381;54.244;10.074;2023-03-20T16:58:36;101034.19;;;9.74;100.00
18504;BME280;9381;54.244;10.074;2023-03-20T17:08:52;101039.34;;;9.69;100.00
18504;BME280;9381;54.244;10.074;2023-03-20T17:13:53;101048.25;;;9.63;100.00
18504;BME280;9381;54.244;10.074;2023-03-20T17:19:03;101045.63;;;9.82;100.00
18504;BME280;9381;54.244;10.074;2023-03-20T17:24:04;101048.78;;;9.99;100.00
18504;BME280;9381;54.244;10.074;2023-03-20T17:29:05;101054.06;;;9.60;100.00
18504;BME280;9381;54.244;10.074;2023-03-20T17:34:05;101058.28;;;9.75;100.00
18504;BME280;9381;54.244;10.074;2023-03-20T17:39:06;101060.06;;;9.55;100.00
18504;BME280;9381;54.244;10.074;2023-03-20T17:44:08;101064.84;;;9.47;100.00
18504;BME280;9381;54.244;10.074;2023-03-20T17:49:13;101067.06;;;9.37;100.00
18504;BME280;9381;54.244;10.074;2023-03-20T17:54:14;101071.72;;;9.15;100.00
18504;BME280;9381;54.244;10.074;2023-03-20T17:59:15;101079.97;;;9.07;100.00
18504;BME280;9381;54.244;10.074;2023-03-20T18:04:15;101083.28;;;9.03;100.00
18504;BME280;9381;54.244;10.074;2023-03-20T18:09:15;101084.16;;;9.10;100.00
18504;BME280;9381;54.244;10.074;2023-03-20T18:14:15;101087.72;;;9.17;100.00
18504;BME280;9381;54.244;10.074;2023-03-20T18:19:22;101086.69;;;9.18;100.00
18504;BME280;9381;54.244;10.074;2023-03-20T18:24:22;101081.31;;;9.18;100.00
18504;BME280;9381;54.244;10.074;2023-03-20T18:29:23;101076.59;;;8.99;100.00
18504;BME280;9381;54.244;10.074;2023-03-20T18:34:23;101077.09;;;9.09;100.00
18504;BME280;9381;54.244;10.074;2023-03-20T18:39:24;101077.38;;;8.86;100.00
18504;BME280;9381;54.244;10.074;2023-03-20T18:44:24;101065.81;;;8.99;100.00
18504;BME280;9381;54.244;10.074;2023-03-20T18:49:24;101060.81;;;8.96;100.00
18504;BME280;9381;54.244;10.074;2023-03-20T18:54:25;101048.81;;;8.98;100.00
18504;BME280;9381;54.244;10.074;2023-03-20T18:59:26;101050.16;;;9.15;100.00
18504;BME280;9381;54.244;10.074;2023-03-20T19:04:26;101053.06;;;9.20;100.00
18504;BME280;9381;54.244;10.074;2023-03-20T19:09:27;101058.28;;;9.22;100.00
18504;BME280;9381;54.244;10.074;2023-03-20T19:14:28;101061.38;;;9.19;100.00
18504;BME280;9381;54.244;10.074;2023-03-20T19:19:28;101063.97;;;9.40;100.00
18504;BME280;9381;54.244;10.074;2023-03-20T19:24:29;101056.94;;;9.52;100.00
18504;BME280;9381;54.244;10.074;2023-03-20T19:29:29;101069.81;;;9.50;100.00
18504;BME280;9381;54.244;10.074;2023-03-20T19:34:29;101058.41;;;9.48;100.00
18504;BME280;9381;54.244;10.074;2023-03-20T19:39:29;101054.91;;;9.54;100.00
18504;BME280;9381;54.244;10.074;2023-03-20T19:44:30;101052.00;;;9.62;100.00
18504;BME280;9381;54.244;10.074;2023-03-20T19:49:30;101057.78;;;9.46;100.00
18504;BME280;9381;54.244;10.074;2023-03-20T19:54:32;101054.84;;;9.47;100.00
18504;BME280;9381;54.244;10.074;2023-03-20T19:59:32;101051.50;;;9.39;100.00
18504;BME280;9381;54.244;10.074;2023-03-20T20:04:32;101052.38;;;9.46;100.00
18504;BME280;9381;54.244;10.074;2023-03-20T20:09:33;101052.75;;;9.43;100.00
18504;BME280;9381;54.244;10.074;2023-03-20T20:14:33;101048.22;;;9.50;100.00
18504;BME280;9381;54.244;10.074;2023-03-20T20:19:33;101050.34;;;9.61;100.00
18504;BME280;9381;54.244;10.074;2023-03-20T20:24:34;101038.28;;;9.57;100.00
18504;BME280;9381;54.244;10.074;2023-03-20T20:29:34;101047.19;;;9.51;100.00
18504;BME280;9381;54.244;10.074;2023-03-20T20:34:35;101038.22;;;9.44;100.00
18504;BME280;9381;54.244;10.074;2023-03-20T20:39:35;101042.03;;;9.56;100.00
18504;BME280;9381;54.244;10.074;2023-03-20T20:44:36;101039.50;;;9.54;100.00
18504;BME280;9381;54.244;10.074;2023-03-20T20:49:36;101037.44;;;9.56;100.00
18504;BME280;9381;54.244;10.074;2023-03-20T20:54:37;101046.47;;;9.29;100.00
18504;BME280;9381;54.244;10.074;2023-03-20T20:59:40;101038.00;;;9.32;100.00
18504;BME280;9381;54.244;10.074;2023-03-20T21:04:41;101036.88;;;9.20;100.00
18504;BME280;9381;54.244;10.074;2023-03-20T21:09:41;101051.09;;;9.42;100.00
18504;BME280;9381;54.244;10.074;2023-03-20T21:14:42;101049.69;;;9.46;100.00
18504;BME280;9381;54.244;10.074;2023-03-20T21:19:42;101048.91;;;9.18;100.00
18504;BME280;9381;54.244;10.074;2023-03-20T21:24:43;101044.41;;;9.31;100.00
18504;BME280;9381;54.244;10.074;2023-03-20T21:29:44;101046.28;;;9.37;100.00
18504;BME280;9381;54.244;10.074;2023-03-20T21:34:47;101044.44;;;9.38;100.00
18504;BME280;9381;54.244;10.074;2023-03-20T21:39:49;101042.63;;;9.51;100.00
18504;BME280;9381;54.244;10.074;2023-03-20T21:44:50;101048.63;;;9.40;100.00
18504;BME280;9381;54.244;10.074;2023-03-20T21:49:51;101050.28;;;9.41;100.00
18504;BME280;9381;54.244;10.074;2023-03-20T21:54:51;101046.16;;;9.52;100.00
18504;BME280;9381;54.244;10.074;2023-03-20T21:59:52;101044.88;;;9.41;100.00
18504;BME280;9381;54.244;10.074;2023-03-20T22:04:53;101042.34;;;9.33;100.00
18504;BME280;9381;54.244;10.074;2023-03-20T22:09:54;101037.31;;;9.24;100.00
18504;BME280;9381;54.244;10.074;2023-03-20T22:14:55;101033.56;;;9.25;100.00
18504;BME280;9381;54.244;10.074;2023-03-20T22:19:56;101036.50;;;9.30;100.00
18504;BME280;9381;54.244;10.074;2023-03-20T22:24:56;101039.22;;;9.30;100.00
18504;BME280;9381;54.244;10.074;2023-03-20T22:29:56;101029.91;;;9.39;100.00
18504;BME280;9381;54.244;10.074;2023-03-20T22:34:57;101025.38;;;9.46;100.00
18504;BME280;9381;54.244;10.074;2023-03-20T22:39:57;101025.72;;;9.30;100.00
18504;BME280;9381;54.244;10.074;2023-03-20T22:44:57;101018.31;;;9.45;100.00
18504;BME280;9381;54.244;10.074;2023-03-20T22:49:57;101018.25;;;9.32;100.00
18504;BME280;9381;54.244;10.074;2023-03-20T22:54:58;101023.44;;;9.27;100.00
18504;BME280;9381;54.244;10.074;2023-03-20T22:59:58;101019.13;;;9.39;100.00
18504;BME280;9381;54.244;10.074;2023-03-20T23:04:59;101020.53;;;9.35;100.00
18504;BME280;9381;54.244;10.074;2023-03-20T23:09:59;101022.44;;;9.47;100.00
18504;BME280;9381;54.244;10.074;2023-03-20T23:14:59;101015.28;;;9.20;100.00
18504;BME280;9381;54.244;10.074;2023-03-20T23:20:00;101012.66;;;9.40;100.00
18504;BME280;9381;54.244;10.074;2023-03-20T23:25:00;101010.75;;;9.27;100.00
18504;BME280;9381;54.244;10.074;2023-03-20T23:30:00;101011.59;;;9.28;100.00
18504;BME280;9381;54.244;10.074;2023-03-20T23:35:01;101016.34;;;9.26;100.00
18504;BME280;9381;54.244;10.074;2023-03-20T23:40:02;101010.63;;;9.48;100.00
18504;BME280;9381;54.244;10.074;2023-03-20T23:45:03;101008.13;;;9.40;100.00
18504;BME280;9381;54.244;10.074;2023-03-20T23:50:04;101007.03;;;9.35;100.00
18504;BME280;9381;54.244;10.074;2023-03-20T23:55:05;100999.97;;;9.34;100.00
